sensor_id;sensor_type;location;lat;lon;timestamp;P1;durP1;ratioP1;P2;durP2;ratioP2
31224;SDS011;17847;31.524;74.366;2022-11-09T00:01:24;122.97;;;66.95;;
31224;SDS011;17847;31.524;74.366;2022-11-09T00:04:04;122.50;;;64.38;;
31224;SDS011;17847;31.524;74.366;2022-11-09T00:07:00;122.43;;;65.55;;
31224;SDS011;17847;31.524;74.366;2022-11-09T00:09:36;130.68;;;66.47;;
31224;SDS011;17847;31.524;74.366;2022-11-09T00:12:32;121.20;;;67.60;;
31224;SDS011;17847;31.524;74.366;2022-11-09T00:15:13;128.68;;;67.60;;
31224;SDS011;17847;31.524;74.366;2022-11-09T00:18:03;129.25;;;68.05;;
31224;SDS011;17847;31.524;74.366;2022-11-09T00:20:38;134.25;;;65.07;;
31224;SDS011;17847;31.524;74.366;2022-11-09T00:23:34;130.15;;;67.25;;
31224;SDS011;17847;31.524;74.366;2022-11-09T00:26:17;120.57;;;65.40;;
31224;SDS011;17847;31.524;74.366;2022-11-09T00:29:07;131.48;;;65.10;;
31224;SDS011;17847;31.524;74.366;2022-11-09T00:31:49;127.25;;;65.97;;
31224;SDS011;17847;31.524;74.366;2022-11-09T00:34:38;120.93;;;65.45;;
31224;SDS011;17847;31.524;74.366;2022-11-09T00:37:34;128.98;;;65.43;;
31224;SDS011;17847;31.524;74.366;2022-11-09T00:40:16;115.47;;;62.97;;
31224;SDS011;17847;31.524;74.366;2022-11-09T00:43:12;121.32;;;65.75;;
31224;SDS011;17847;31.524;74.366;2022-11-09T00:45:48;121.07;;;66.68;;
31224;SDS011;17847;31.524;74.366;2022-11-09T00:48:43;122.22;;;66.18;;
31224;SDS011;17847;31.524;74.366;2022-11-09T00:51:25;116.30;;;64.97;;
31224;SDS011;17847;31.524;74.366;2022-11-09T00:54:14;124.07;;;64.32;;
31224;SDS011;17847;31.524;74.366;2022-11-09T00:56:57;125.38;;;67.55;;
31224;SDS011;17847;31.524;74.366;2022-11-09T00:59:49;127.85;;;63.70;;
31224;SDS011;17847;31.524;74.366;2022-11-09T01:02:32;113.22;;;63.30;;
31224;SDS011;17847;31.524;74.366;2022-11-09T01:05:21;117.95;;;65.13;;
31224;SDS011;17847;31.524;74.366;2022-11-09T01:08:04;115.40;;;64.38;;
31224;SDS011;17847;31.524;74.366;2022-11-09T01:11:06;117.78;;;67.10;;
31224;SDS011;17847;31.524;74.366;2022-11-09T01:13:43;123.43;;;65.95;;
31224;SDS011;17847;31.524;74.366;2022-11-09T01:16:41;116.55;;;64.70;;
31224;SDS011;17847;31.524;74.366;2022-11-09T01:19:25;117.82;;;63.50;;
31224;SDS011;17847;31.524;74.366;2022-11-09T01:22:14;117.38;;;64.93;;
31224;SDS011;17847;31.524;74.366;2022-11-09T01:24:57;118.03;;;62.83;;
31224;SDS011;17847;31.524;74.366;2022-11-09T01:27:53;110.20;;;59.20;;
31224;SDS011;17847;31.524;74.366;2022-11-09T01:30:36;107.03;;;60.80;;
31224;SDS011;17847;31.524;74.366;2022-11-09T01:33:30;104.28;;;58.72;;
31224;SDS011;17847;31.524;74.366;2022-11-09T01:36:07;107.78;;;60.15;;
31224;SDS011;17847;31.524;74.366;2022-11-09T01:39:06;123.57;;;63.80;;
31224;SDS011;17847;31.524;74.366;2022-11-09T01:41:41;111.15;;;59.58;;
31224;SDS011;17847;31.524;74.366;2022-11-09T01:44:37;115.53;;;60.28;;
31224;SDS011;17847;31.524;74.366;2022-11-09T01:47:14;111.68;;;62.03;;
31224;SDS011;17847;31.524;74.366;2022-11-09T01:50:17;121.78;;;61.75;;
31224;SDS011;17847;31.524;74.366;2022-11-09T01:53:02;109.95;;;60.88;;
31224;SDS011;17847;31.524;74.366;2022-11-09T01:56:00;110.40;;;61.00;;
31224;SDS011;17847;31.524;74.366;2022-11-09T01:58:58;104.35;;;59.53;;
31224;SDS011;17847;31.524;74.366;2022-11-09T02:01:57;110.07;;;58.70;;
31224;SDS011;17847;31.524;74.366;2022-11-09T02:04:40;104.95;;;59.90;;
31224;SDS011;17847;31.524;74.366;2022-11-09T02:07:41;111.93;;;61.83;;
31224;SDS011;17847;31.524;74.366;2022-11-09T02:10:32;123.35;;;60.95;;
31224;SDS011;17847;31.524;74.366;2022-11-09T02:13:30;118.18;;;61.97;;
31224;SDS011;17847;31.524;74.366;2022-11-09T02:16:14;120.03;;;62.53;;
31224;SDS011;17847;31.524;74.366;2022-11-09T02:19:04;108.60;;;57.83;;
31224;SDS011;17847;31.524;74.366;2022-11-09T02:21:47;106.88;;;59.15;;
31224;SDS011;17847;31.524;74.366;2022-11-09T02:24:44;116.45;;;58.80;;
31224;SDS011;17847;31.524;74.366;2022-11-09T02:27:19;104.85;;;57.17;;
31224;SDS011;17847;31.524;74.366;2022-11-09T02:30:15;107.90;;;57.50;;
31224;SDS011;17847;31.524;74.366;2022-11-09T02:33:00;113.57;;;54.95;;
31224;SDS011;17847;31.524;74.366;2022-11-09T02:35:50;91.57;;;55.40;;
31224;SDS011;17847;31.524;74.366;2022-11-09T02:38:46;94.82;;;53.20;;
31224;SDS011;17847;31.524;74.366;2022-11-09T02:41:22;98.32;;;55.08;;
31224;SDS011;17847;31.524;74.366;2022-11-09T02:44:18;92.88;;;54.55;;
31224;SDS011;17847;31.524;74.366;2022-11-09T02:47:00;123.85;;;58.80;;
31224;SDS011;17847;31.524;74.366;2022-11-09T02:49:51;98.53;;;54.38;;
31224;SDS011;17847;31.524;74.366;2022-11-09T02:52:27;109.82;;;57.13;;
31224;SDS011;17847;31.524;74.366;2022-11-09T02:55:23;112.43;;;55.22;;
31224;SDS011;17847;31.524;74.366;2022-11-09T02:57:58;115.00;;;60.40;;
31224;SDS011;17847;31.524;74.366;2022-11-09T03:00:54;127.43;;;68.38;;
31224;SDS011;17847;31.524;74.366;2022-11-09T03:03:36;137.60;;;70.63;;
31224;SDS011;17847;31.524;74.366;2022-11-09T03:06:25;128.98;;;61.63;;
31224;SDS011;17847;31.524;74.366;2022-11-09T03:09:17;119.22;;;59.67;;
31224;SDS011;17847;31.524;74.366;2022-11-09T03:12:06;117.30;;;57.70;;
31224;SDS011;17847;31.524;74.366;2022-11-09T03:15:10;109.70;;;56.60;;
31224;SDS011;17847;31.524;74.366;2022-11-09T03:18:06;109.82;;;52.38;;
31224;SDS011;17847;31.524;74.366;2022-11-09T03:20:49;94.80;;;53.03;;
31224;SDS011;17847;31.524;74.366;2022-11-09T03:23:44;96.68;;;53.83;;
31224;SDS011;17847;31.524;74.366;2022-11-09T03:26:20;95.53;;;53.22;;
31224;SDS011;17847;31.524;74.366;2022-11-09T03:29:16;98.78;;;51.60;;
31224;SDS011;17847;31.524;74.366;2022-11-09T03:32:00;102.57;;;53.67;;
31224;SDS011;17847;31.524;74.366;2022-11-09T03:34:48;92.95;;;54.17;;
31224;SDS011;17847;31.524;74.366;2022-11-09T03:37:38;94.03;;;50.83;;
31224;SDS011;17847;31.524;74.366;2022-11-09T03:40:19;92.70;;;52.17;;
31224;SDS011;17847;31.524;74.366;2022-11-09T03:43:09;105.35;;;51.78;;
31224;SDS011;17847;31.524;74.366;2022-11-09T03:45:51;90.70;;;52.47;;
31224;SDS011;17847;31.524;74.366;2022-11-09T03:48:41;98.07;;;52.35;;
31224;SDS011;17847;31.524;74.366;2022-11-09T03:51:22;88.40;;;52.00;;
31224;SDS011;17847;31.524;74.366;2022-11-09T03:54:12;94.90;;;50.95;;
31224;SDS011;17847;31.524;74.366;2022-11-09T03:57:08;92.38;;;50.13;;
31224;SDS011;17847;31.524;74.366;2022-11-09T03:59:49;98.95;;;52.03;;
31224;SDS011;17847;31.524;74.366;2022-11-09T04:02:44;88.47;;;49.83;;
31224;SDS011;17847;31.524;74.366;2022-11-09T04:05:20;101.22;;;52.83;;
31224;SDS011;17847;31.524;74.366;2022-11-09T04:08:16;96.20;;;55.13;;
31224;SDS011;17847;31.524;74.366;2022-11-09T04:10:51;103.00;;;60.40;;
31224;SDS011;17847;31.524;74.366;2022-11-09T04:13:47;104.32;;;56.40;;
31224;SDS011;17847;31.524;74.366;2022-11-09T04:16:30;118.90;;;62.85;;
31224;SDS011;17847;31.524;74.366;2022-11-09T04:19:20;110.18;;;62.28;;
31224;SDS011;17847;31.524;74.366;2022-11-09T04:22:03;124.07;;;63.75;;
31224;SDS011;17847;31.524;74.366;2022-11-09T04:24:52;110.10;;;61.88;;
31224;SDS011;17847;31.524;74.366;2022-11-09T04:27:34;115.57;;;61.92;;
31224;SDS011;17847;31.524;74.366;2022-11-09T04:30:30;117.07;;;65.55;;
31224;SDS011;17847;31.524;74.366;2022-11-09T04:33:07;127.35;;;63.72;;
31224;SDS011;17847;31.524;74.366;2022-11-09T04:36:04;108.93;;;63.97;;
31224;SDS011;17847;31.524;74.366;2022-11-09T04:38:46;95.38;;;58.75;;
31224;SDS011;17847;31.524;74.366;2022-11-09T04:41:36;120.53;;;69.00;;
31224;SDS011;17847;31.524;74.366;2022-11-09T04:44:18;121.95;;;69.35;;
31224;SDS011;17847;31.524;74.366;2022-11-09T04:47:14;124.38;;;66.95;;
31224;SDS011;17847;31.524;74.366;2022-11-09T04:49:56;130.65;;;71.30;;
31224;SDS011;17847;31.524;74.366;2022-11-09T04:52:45;118.32;;;67.97;;
31224;SDS011;17847;31.524;74.366;2022-11-09T04:55:27;118.47;;;68.70;;
31224;SDS011;17847;31.524;74.366;2022-11-09T04:58:16;119.60;;;65.53;;
31224;SDS011;17847;31.524;74.366;2022-11-09T05:01:05;124.28;;;67.75;;
31224;SDS011;17847;31.524;74.366;2022-11-09T05:03:57;127.63;;;68.63;;
31224;SDS011;17847;31.524;74.366;2022-11-09T05:06:39;115.75;;;66.07;;
31224;SDS011;17847;31.524;74.366;2022-11-09T05:09:28;130.70;;;67.57;;
31224;SDS011;17847;31.524;74.366;2022-11-09T05:12:10;118.45;;;66.32;;
31224;SDS011;17847;31.524;74.366;2022-11-09T05:15:00;106.95;;;63.55;;
31224;SDS011;17847;31.524;74.366;2022-11-09T05:17:42;116.45;;;66.45;;
31224;SDS011;17847;31.524;74.366;2022-11-09T05:20:31;117.20;;;65.47;;
31224;SDS011;17847;31.524;74.366;2022-11-09T05:23:13;126.55;;;68.85;;
31224;SDS011;17847;31.524;74.366;2022-11-09T05:26:20;129.20;;;66.95;;
31224;SDS011;17847;31.524;74.366;2022-11-09T05:29:04;115.75;;;65.50;;
31224;SDS011;17847;31.524;74.366;2022-11-09T05:31:56;101.85;;;57.13;;
31224;SDS011;17847;31.524;74.366;2022-11-09T05:34:38;114.43;;;64.00;;
31224;SDS011;17847;31.524;74.366;2022-11-09T05:37:27;115.40;;;65.38;;
31224;SDS011;17847;31.524;74.366;2022-11-09T05:40:09;114.15;;;65.40;;
31224;SDS011;17847;31.524;74.366;2022-11-09T05:43:05;113.55;;;62.70;;
31224;SDS011;17847;31.524;74.366;2022-11-09T05:45:40;110.45;;;62.55;;
31224;SDS011;17847;31.524;74.366;2022-11-09T05:48:36;101.75;;;60.60;;
31224;SDS011;17847;31.524;74.366;2022-11-09T05:51:18;99.47;;;59.03;;
31224;SDS011;17847;31.524;74.366;2022-11-09T05:54:07;107.82;;;63.78;;
31224;SDS011;17847;31.524;74.366;2022-11-09T05:56:49;107.38;;;59.88;;
31224;SDS011;17847;31.524;74.366;2022-11-09T05:59:45;92.35;;;54.85;;
31224;SDS011;17847;31.524;74.366;2022-11-09T06:02:31;85.53;;;48.53;;
31224;SDS011;17847;31.524;74.366;2022-11-09T06:05:20;81.68;;;46.58;;
31224;SDS011;17847;31.524;74.366;2022-11-09T06:08:03;76.30;;;43.30;;
31224;SDS011;17847;31.524;74.366;2022-11-09T06:10:56;79.18;;;42.22;;
31224;SDS011;17847;31.524;74.366;2022-11-09T06:13:40;87.72;;;50.00;;
31224;SDS011;17847;31.524;74.366;2022-11-09T06:16:36;94.63;;;51.72;;
31224;SDS011;17847;31.524;74.366;2022-11-09T06:19:18;85.60;;;48.03;;
31224;SDS011;17847;31.524;74.366;2022-11-09T06:22:07;92.15;;;50.28;;
31224;SDS011;17847;31.524;74.366;2022-11-09T06:24:49;93.18;;;52.30;;
31224;SDS011;17847;31.524;74.366;2022-11-09T06:27:45;103.88;;;50.72;;
31224;SDS011;17847;31.524;74.366;2022-11-09T06:30:26;91.60;;;49.67;;
31224;SDS011;17847;31.524;74.366;2022-11-09T06:33:16;87.93;;;51.65;;
31224;SDS011;17847;31.524;74.366;2022-11-09T06:35:58;89.72;;;49.83;;
31224;SDS011;17847;31.524;74.366;2022-11-09T06:38:47;88.75;;;48.78;;
31224;SDS011;17847;31.524;74.366;2022-11-09T06:41:32;85.38;;;49.17;;
31224;SDS011;17847;31.524;74.366;2022-11-09T06:44:28;95.60;;;48.35;;
31224;SDS011;17847;31.524;74.366;2022-11-09T06:47:09;82.97;;;48.08;;
31224;SDS011;17847;31.524;74.366;2022-11-09T06:49:59;85.25;;;48.63;;
31224;SDS011;17847;31.524;74.366;2022-11-09T06:52:41;82.78;;;48.10;;
31224;SDS011;17847;31.524;74.366;2022-11-09T06:55:31;97.60;;;51.38;;
31224;SDS011;17847;31.524;74.366;2022-11-09T06:58:22;87.05;;;47.95;;
31224;SDS011;17847;31.524;74.366;2022-11-09T07:01:12;96.33;;;49.50;;
31224;SDS011;17847;31.524;74.366;2022-11-09T07:03:57;88.03;;;48.72;;
31224;SDS011;17847;31.524;74.366;2022-11-09T07:06:46;86.63;;;50.83;;
31224;SDS011;17847;31.524;74.366;2022-11-09T07:09:28;89.63;;;48.53;;
31224;SDS011;17847;31.524;74.366;2022-11-09T07:12:17;89.05;;;48.63;;
31224;SDS011;17847;31.524;74.366;2022-11-09T07:14:59;78.07;;;46.35;;
31224;SDS011;17847;31.524;74.366;2022-11-09T07:17:49;88.07;;;47.50;;
31224;SDS011;17847;31.524;74.366;2022-11-09T07:20:31;97.88;;;48.88;;
31224;SDS011;17847;31.524;74.366;2022-11-09T07:23:27;154.68;;;81.82;;
31224;SDS011;17847;31.524;74.366;2022-11-09T07:26:02;133.77;;;70.93;;
31224;SDS011;17847;31.524;74.366;2022-11-09T07:28:58;141.48;;;79.93;;
31224;SDS011;17847;31.524;74.366;2022-11-09T07:31:39;141.98;;;77.13;;
31224;SDS011;17847;31.524;74.366;2022-11-09T07:34:29;172.60;;;95.35;;
31224;SDS011;17847;31.524;74.366;2022-11-09T07:37:17;204.43;;;110.72;;
31224;SDS011;17847;31.524;74.366;2022-11-09T07:39:59;203.40;;;115.30;;
31224;SDS011;17847;31.524;74.366;2022-11-09T07:42:48;223.73;;;125.65;;
31224;SDS011;17847;31.524;74.366;2022-11-09T07:45:31;213.25;;;116.10;;
31224;SDS011;17847;31.524;74.366;2022-11-09T07:48:21;190.82;;;109.35;;
31224;SDS011;17847;31.524;74.366;2022-11-09T07:51:03;196.02;;;106.25;;
31224;SDS011;17847;31.524;74.366;2022-11-09T07:53:52;185.15;;;98.97;;
31224;SDS011;17847;31.524;74.366;2022-11-09T07:56:34;128.07;;;73.50;;
31224;SDS011;17847;31.524;74.366;2022-11-09T07:59:24;166.52;;;83.55;;
31224;SDS011;17847;31.524;74.366;2022-11-09T08:02:07;146.68;;;81.85;;
31224;SDS011;17847;31.524;74.366;2022-11-09T08:04:56;126.22;;;71.15;;
31224;SDS011;17847;31.524;74.366;2022-11-09T08:07:38;98.07;;;54.53;;
31224;SDS011;17847;31.524;74.366;2022-11-09T08:10:28;116.25;;;65.18;;
31224;SDS011;17847;31.524;74.366;2022-11-09T08:13:13;100.50;;;57.35;;
31224;SDS011;17847;31.524;74.366;2022-11-09T08:16:03;102.20;;;55.85;;
31224;SDS011;17847;31.524;74.366;2022-11-09T08:18:45;92.13;;;55.58;;
31224;SDS011;17847;31.524;74.366;2022-11-09T08:21:36;95.00;;;52.95;;
31224;SDS011;17847;31.524;74.366;2022-11-09T08:24:25;100.80;;;57.92;;
31224;SDS011;17847;31.524;74.366;2022-11-09T08:27:15;110.85;;;57.20;;
31224;SDS011;17847;31.524;74.366;2022-11-09T08:30:00;91.72;;;54.97;;
31224;SDS011;17847;31.524;74.366;2022-11-09T08:32:50;88.05;;;53.78;;
31224;SDS011;17847;31.524;74.366;2022-11-09T08:35:40;86.85;;;51.65;;
31224;SDS011;17847;31.524;74.366;2022-11-09T08:38:37;92.32;;;50.72;;
31224;SDS011;17847;31.524;74.366;2022-11-09T08:41:34;79.57;;;49.25;;
31224;SDS011;17847;31.524;74.366;2022-11-09T08:44:17;83.25;;;47.88;;
31224;SDS011;17847;31.524;74.366;2022-11-09T08:47:08;98.80;;;56.30;;
31224;SDS011;17847;31.524;74.366;2022-11-09T08:49:46;91.65;;;51.63;;
31224;SDS011;17847;31.524;74.366;2022-11-09T08:52:42;99.40;;;57.90;;
31224;SDS011;17847;31.524;74.366;2022-11-09T08:55:25;102.32;;;61.72;;
31224;SDS011;17847;31.524;74.366;2022-11-09T08:58:29;91.13;;;55.20;;
31224;SDS011;17847;31.524;74.366;2022-11-09T09:01:12;97.22;;;58.40;;
31224;SDS011;17847;31.524;74.366;2022-11-09T09:04:02;98.50;;;54.35;;
31224;SDS011;17847;31.524;74.366;2022-11-09T09:06:46;90.68;;;52.20;;
31224;SDS011;17847;31.524;74.366;2022-11-09T09:09:37;92.93;;;53.30;;
31224;SDS011;17847;31.524;74.366;2022-11-09T09:12:20;88.25;;;51.83;;
31224;SDS011;17847;31.524;74.366;2022-11-09T09:15:12;89.18;;;51.42;;
31224;SDS011;17847;31.524;74.366;2022-11-09T09:17:57;80.38;;;49.30;;
31224;SDS011;17847;31.524;74.366;2022-11-09T09:20:47;83.20;;;46.33;;
31224;SDS011;17847;31.524;74.366;2022-11-09T09:23:30;79.22;;;44.40;;
31224;SDS011;17847;31.524;74.366;2022-11-09T09:26:28;87.47;;;50.10;;
31224;SDS011;17847;31.524;74.366;2022-11-09T09:29:11;85.82;;;46.45;;
31224;SDS011;17847;31.524;74.366;2022-11-09T09:32:02;82.63;;;46.60;;
31224;SDS011;17847;31.524;74.366;2022-11-09T09:34:45;99.25;;;54.45;;
31224;SDS011;17847;31.524;74.366;2022-11-09T09:37:38;89.10;;;53.85;;
31224;SDS011;17847;31.524;74.366;2022-11-09T09:40:49;96.47;;;56.15;;
31224;SDS011;17847;31.524;74.366;2022-11-09T09:43:42;122.55;;;67.97;;
31224;SDS011;17847;31.524;74.366;2022-11-09T09:46:38;103.30;;;60.88;;
31224;SDS011;17847;31.524;74.366;2022-11-09T09:49:25;119.57;;;65.05;;
31224;SDS011;17847;31.524;74.366;2022-11-09T09:55:42;114.55;;;64.07;;
31224;SDS011;17847;31.524;74.366;2022-11-09T09:59:01;97.60;;;56.88;;
31224;SDS011;17847;31.524;74.366;2022-11-09T10:04:39;98.85;;;51.60;;
31224;SDS011;17847;31.524;74.366;2022-11-09T10:10:22;93.80;;;49.33;;
31224;SDS011;17847;31.524;74.366;2022-11-09T10:19:27;70.55;;;42.88;;
31224;SDS011;17847;31.524;74.366;2022-11-09T10:25:24;71.90;;;38.10;;
31224;SDS011;17847;31.524;74.366;2022-11-09T10:28:43;75.68;;;39.80;;
31224;SDS011;17847;31.524;74.366;2022-11-09T10:31:49;63.50;;;36.80;;
31224;SDS011;17847;31.524;74.366;2022-11-09T10:34:55;68.20;;;37.33;;
31224;SDS011;17847;31.524;74.366;2022-11-09T10:38:01;67.30;;;39.00;;
31224;SDS011;17847;31.524;74.366;2022-11-09T10:41:38;74.63;;;40.88;;
31224;SDS011;17847;31.524;74.366;2022-11-09T10:44:44;72.05;;;43.30;;
31224;SDS011;17847;31.524;74.366;2022-11-09T10:47:52;77.97;;;43.72;;
31224;SDS011;17847;31.524;74.366;2022-11-09T10:50:54;80.30;;;46.55;;
31224;SDS011;17847;31.524;74.366;2022-11-09T10:57:22;88.47;;;50.53;;
31224;SDS011;17847;31.524;74.366;2022-11-09T11:00:53;98.35;;;51.45;;
31224;SDS011;17847;31.524;74.366;2022-11-09T11:03:55;87.78;;;47.80;;
31224;SDS011;17847;31.524;74.366;2022-11-09T11:07:13;86.40;;;46.20;;
31224;SDS011;17847;31.524;74.366;2022-11-09T11:13:29;82.90;;;46.22;;
31224;SDS011;17847;31.524;74.366;2022-11-09T11:16:33;74.82;;;44.17;;
31224;SDS011;17847;31.524;74.366;2022-11-09T11:19:50;75.93;;;42.67;;
31224;SDS011;17847;31.524;74.366;2022-11-09T11:22:44;75.80;;;42.75;;
31224;SDS011;17847;31.524;74.366;2022-11-09T11:26:05;71.80;;;39.45;;
31224;SDS011;17847;31.524;74.366;2022-11-09T11:32:40;65.95;;;39.05;;
31224;SDS011;17847;31.524;74.366;2022-11-09T11:35:44;68.45;;;40.20;;
31224;SDS011;17847;31.524;74.366;2022-11-09T11:39:15;74.53;;;40.28;;
31224;SDS011;17847;31.524;74.366;2022-11-09T11:45:58;71.82;;;39.85;;
31224;SDS011;17847;31.524;74.366;2022-11-09T11:49:22;75.60;;;39.90;;
31224;SDS011;17847;31.524;74.366;2022-11-09T12:13:32;66.35;;;38.40;;
31224;SDS011;17847;31.524;74.366;2022-11-09T12:30:19;67.07;;;39.80;;
31224;SDS011;17847;31.524;74.366;2022-11-09T12:33:57;77.22;;;41.10;;
31224;SDS011;17847;31.524;74.366;2022-11-09T12:37:17;68.95;;;40.55;;
31224;SDS011;17847;31.524;74.366;2022-11-09T12:40:47;70.13;;;41.45;;
31224;SDS011;17847;31.524;74.366;2022-11-09T12:47:21;77.93;;;41.83;;
31224;SDS011;17847;31.524;74.366;2022-11-09T12:50:27;67.40;;;41.35;;
31224;SDS011;17847;31.524;74.366;2022-11-09T12:53:37;75.13;;;43.50;;
31224;SDS011;17847;31.524;74.366;2022-11-09T12:56:58;78.75;;;45.95;;
31224;SDS011;17847;31.524;74.366;2022-11-09T13:00:13;89.87;;;46.10;;
31224;SDS011;17847;31.524;74.366;2022-11-09T13:03:33;85.13;;;46.30;;
31224;SDS011;17847;31.524;74.366;2022-11-09T13:07:52;84.28;;;50.00;;
31224;SDS011;17847;31.524;74.366;2022-11-09T13:10:35;92.40;;;51.80;;
31224;SDS011;17847;31.524;74.366;2022-11-09T13:13:50;97.13;;;51.85;;
31224;SDS011;17847;31.524;74.366;2022-11-09T13:16:51;99.80;;;50.65;;
31224;SDS011;17847;31.524;74.366;2022-11-09T13:19:59;88.53;;;49.40;;
31224;SDS011;17847;31.524;74.366;2022-11-09T13:23:01;88.60;;;48.60;;
31224;SDS011;17847;31.524;74.366;2022-11-09T13:29:49;92.38;;;51.22;;
31224;SDS011;17847;31.524;74.366;2022-11-09T13:39:37;105.22;;;53.13;;
31224;SDS011;17847;31.524;74.366;2022-11-09T13:42:37;92.10;;;50.30;;
31224;SDS011;17847;31.524;74.366;2022-11-09T13:45:54;82.70;;;47.92;;
31224;SDS011;17847;31.524;74.366;2022-11-09T13:49:02;91.43;;;48.00;;
31224;SDS011;17847;31.524;74.366;2022-11-09T13:53:02;81.22;;;44.20;;
31224;SDS011;17847;31.524;74.366;2022-11-09T13:59:51;78.88;;;41.90;;
31224;SDS011;17847;31.524;74.366;2022-11-09T14:02:55;83.07;;;42.00;;
31224;SDS011;17847;31.524;74.366;2022-11-09T14:06:18;75.38;;;42.17;;
31224;SDS011;17847;31.524;74.366;2022-11-09T14:09:13;72.20;;;43.53;;
31224;SDS011;17847;31.524;74.366;2022-11-09T14:12:55;76.32;;;40.72;;
31224;SDS011;17847;31.524;74.366;2022-11-09T14:16:24;75.75;;;42.83;;
31224;SDS011;17847;31.524;74.366;2022-11-09T14:23:19;79.47;;;43.00;;
31224;SDS011;17847;31.524;74.366;2022-11-09T14:26:37;61.45;;;39.10;;
31224;SDS011;17847;31.524;74.366;2022-11-09T14:29:31;57.58;;;36.65;;
31224;SDS011;17847;31.524;74.366;2022-11-09T14:32:49;69.28;;;37.58;;
31224;SDS011;17847;31.524;74.366;2022-11-09T14:35:53;65.85;;;37.75;;
31224;SDS011;17847;31.524;74.366;2022-11-09T14:42:44;65.32;;;35.70;;
31224;SDS011;17847;31.524;74.366;2022-11-09T14:45:58;61.63;;;34.92;;
31224;SDS011;17847;31.524;74.366;2022-11-09T14:52:11;53.88;;;31.35;;
31224;SDS011;17847;31.524;74.366;2022-11-09T14:55:11;61.70;;;34.00;;
31224;SDS011;17847;31.524;74.366;2022-11-09T14:58:27;60.33;;;31.48;;
31224;SDS011;17847;31.524;74.366;2022-11-09T15:01:30;59.15;;;33.05;;
31224;SDS011;17847;31.524;74.366;2022-11-09T15:08:04;68.05;;;32.72;;
31224;SDS011;17847;31.524;74.366;2022-11-09T15:11:38;59.08;;;33.13;;
31224;SDS011;17847;31.524;74.366;2022-11-09T15:14:40;61.50;;;32.67;;
31224;SDS011;17847;31.524;74.366;2022-11-09T15:17:53;60.63;;;33.25;;
31224;SDS011;17847;31.524;74.366;2022-11-09T15:24:25;54.92;;;31.05;;
31224;SDS011;17847;31.524;74.366;2022-11-09T15:27:29;62.70;;;32.72;;
31224;SDS011;17847;31.524;74.366;2022-11-09T15:33:55;59.65;;;32.22;;
31224;SDS011;17847;31.524;74.366;2022-11-09T15:37:03;58.17;;;33.40;;
31224;SDS011;17847;31.524;74.366;2022-11-09T15:40:19;54.38;;;32.85;;
31224;SDS011;17847;31.524;74.366;2022-11-09T15:43:36;60.00;;;33.05;;
31224;SDS011;17847;31.524;74.366;2022-11-09T15:46:41;60.75;;;34.38;;
31224;SDS011;17847;31.524;74.366;2022-11-09T15:50:00;60.78;;;32.72;;
31224;SDS011;17847;31.524;74.366;2022-11-09T15:53:15;55.83;;;33.95;;
31224;SDS011;17847;31.524;74.366;2022-11-09T15:56:30;64.07;;;33.30;;
31224;SDS011;17847;31.524;74.366;2022-11-09T15:59:30;57.20;;;34.30;;
31224;SDS011;17847;31.524;74.366;2022-11-09T16:02:37;58.58;;;32.75;;
31224;SDS011;17847;31.524;74.366;2022-11-09T16:05:38;61.97;;;34.22;;
31224;SDS011;17847;31.524;74.366;2022-11-09T16:08:46;58.72;;;33.53;;
31224;SDS011;17847;31.524;74.366;2022-11-09T16:11:48;60.05;;;34.92;;
31224;SDS011;17847;31.524;74.366;2022-11-09T16:14:57;62.90;;;30.75;;
31224;SDS011;17847;31.524;74.366;2022-11-09T16:17:58;55.75;;;33.00;;
31224;SDS011;17847;31.524;74.366;2022-11-09T16:21:13;53.63;;;32.72;;
31224;SDS011;17847;31.524;74.366;2022-11-09T16:24:15;56.80;;;31.33;;
31224;SDS011;17847;31.524;74.366;2022-11-09T16:27:22;54.22;;;30.58;;
31224;SDS011;17847;31.524;74.366;2022-11-09T16:30:43;52.08;;;29.92;;
31224;SDS011;17847;31.524;74.366;2022-11-09T16:33:57;53.63;;;30.23;;
31224;SDS011;17847;31.524;74.366;2022-11-09T16:36:50;56.05;;;29.50;;
31224;SDS011;17847;31.524;74.366;2022-11-09T16:40:05;50.67;;;29.52;;
31224;SDS011;17847;31.524;74.366;2022-11-09T16:43:02;50.10;;;29.85;;
31224;SDS011;17847;31.524;74.366;2022-11-09T16:46:17;55.00;;;29.88;;
31224;SDS011;17847;31.524;74.366;2022-11-09T16:49:24;54.85;;;29.25;;
31224;SDS011;17847;31.524;74.366;2022-11-09T16:52:32;47.55;;;27.50;;
31224;SDS011;17847;31.524;74.366;2022-11-09T16:55:32;56.75;;;28.83;;
31224;SDS011;17847;31.524;74.366;2022-11-09T16:58:47;52.20;;;27.80;;
31224;SDS011;17847;31.524;74.366;2022-11-09T17:01:41;51.72;;;28.38;;
31224;SDS011;17847;31.524;74.366;2022-11-09T17:04:42;51.35;;;27.33;;
31224;SDS011;17847;31.524;74.366;2022-11-09T17:07:50;57.22;;;28.38;;
31224;SDS011;17847;31.524;74.366;2022-11-09T17:10:50;51.47;;;28.15;;
31224;SDS011;17847;31.524;74.366;2022-11-09T17:14:04;51.00;;;27.42;;
31224;SDS011;17847;31.524;74.366;2022-11-09T17:16:58;47.47;;;27.10;;
31224;SDS011;17847;31.524;74.366;2022-11-09T17:23:14;45.85;;;26.33;;
31224;SDS011;17847;31.524;74.366;2022-11-09T17:26:31;52.97;;;27.63;;
31224;SDS011;17847;31.524;74.366;2022-11-09T17:29:26;50.55;;;28.10;;
31224;SDS011;17847;31.524;74.366;2022-11-09T17:32:40;56.50;;;29.40;;
31224;SDS011;17847;31.524;74.366;2022-11-09T17:35:34;49.88;;;28.27;;
31224;SDS011;17847;31.524;74.366;2022-11-09T17:38:49;56.65;;;28.30;;
31224;SDS011;17847;31.524;74.366;2022-11-09T17:41:49;55.10;;;29.75;;
31224;SDS011;17847;31.524;74.366;2022-11-09T17:44:57;51.05;;;29.50;;
31224;SDS011;17847;31.524;74.366;2022-11-09T17:47:51;55.38;;;29.08;;
31224;SDS011;17847;31.524;74.366;2022-11-09T17:51:07;52.08;;;29.45;;
31224;SDS011;17847;31.524;74.366;2022-11-09T17:54:09;55.53;;;30.60;;
31224;SDS011;17847;31.524;74.366;2022-11-09T17:57:22;50.25;;;30.13;;
31224;SDS011;17847;31.524;74.366;2022-11-09T18:00:17;61.97;;;30.95;;
31224;SDS011;17847;31.524;74.366;2022-11-09T18:03:35;54.80;;;29.42;;
31224;SDS011;17847;31.524;74.366;2022-11-09T18:06:37;52.67;;;29.70;;
31224;SDS011;17847;31.524;74.366;2022-11-09T18:09:45;49.45;;;28.48;;
31224;SDS011;17847;31.524;74.366;2022-11-09T18:12:45;45.00;;;26.65;;
31224;SDS011;17847;31.524;74.366;2022-11-09T18:16:03;42.28;;;24.98;;
31224;SDS011;17847;31.524;74.366;2022-11-09T18:19:15;45.92;;;25.13;;
31224;SDS011;17847;31.524;74.366;2022-11-09T18:22:23;42.97;;;25.42;;
31224;SDS011;17847;31.524;74.366;2022-11-09T18:25:24;44.55;;;23.50;;
31224;SDS011;17847;31.524;74.366;2022-11-09T18:28:32;43.90;;;24.77;;
31224;SDS011;17847;31.524;74.366;2022-11-09T18:31:33;45.72;;;22.98;;
31224;SDS011;17847;31.524;74.366;2022-11-09T18:34:48;38.72;;;22.85;;
31224;SDS011;17847;31.524;74.366;2022-11-09T18:37:41;36.47;;;22.17;;